Time;durP1;ratioP1;P1;durP2;ratioP2;P2;SDS_P1;SDS_P2;PMS_P1;PMS_P2;Temp;Humidity;BMP_temperature;BMP_pressure;BME280_temperature;BME280_humidity;BME280_pressure;Samples;Min_cycle;Max_cycle;Signal;HPM_P1;HPM_P2
2021/04/03 00:00:25;;;;;;;3.00;2.70;;;;;;;18.89;47.90;99390.09;2067784;28;20026;-63
2021/04/03 00:01:25;;;;;;;2.92;2.55;;;;;;;18.90;47.71;99392.66;2070783;28;20168;-63
2021/04/03 00:02:27;;;;;;;4.93;3.40;;;;;;;18.89;47.68;99385.50;2067830;28;20030;-63
2021/04/03 00:03:29;;;;;;;4.10;3.13;;;;;;;18.90;47.67;99387.19;2068521;28;20104;-63
2021/04/03 00:04:29;;;;;;;3.42;3.05;;;;;;;18.90;47.78;99386.34;2064332;28;20801;-63
2021/04/03 00:05:30;;;;;;;3.03;2.43;;;;;;;18.89;47.66;99388.22;2062077;28;20425;-63
2021/04/03 00:06:31;;;;;;;3.37;2.83;;;;;;;18.89;47.71;99380.03;2064236;28;20033;-63
2021/04/03 00:07:31;;;;;;;3.43;3.07;;;;;;;18.90;47.82;99386.34;2063121;28;20054;-63
2021/04/03 00:08:32;;;;;;;3.47;2.83;;;;;;;18.90;47.85;99380.88;2064543;28;20030;-64
2021/04/03 00:09:32;;;;;;;3.30;2.60;;;;;;;18.90;47.89;99386.34;2066267;28;20044;-63
2021/04/03 00:10:38;;;;;;;3.30;3.00;;;;;;;18.89;47.85;99384.63;2062797;28;20050;-63
2021/04/03 00:11:39;;;;;;;4.65;2.60;;;;;;;18.89;47.94;99390.09;2064102;28;20061;-63
2021/04/03 00:12:40;;;;;;;2.87;2.20;;;;;;;18.89;47.80;99390.09;2065557;28;20030;-63
2021/04/03 00:13:42;;;;;;;3.53;2.55;;;;;;;18.89;47.76;99384.63;2072457;28;20033;-63
2021/04/03 00:14:44;;;;;;;4.50;2.55;;;;;;;18.89;47.78;99390.09;2070203;28;20113;-63
2021/04/03 00:15:46;;;;;;;3.60;2.78;;;;;;;18.89;47.80;99390.97;2072395;28;20577;-63
2021/04/03 00:16:46;;;;;;;4.70;2.58;;;;;;;18.90;47.76;99386.34;2065957;28;20034;-63
2021/04/03 00:17:47;;;;;;;2.80;2.43;;;;;;;18.90;47.63;99389.09;2061612;28;20026;-62
2021/04/03 00:18:47;;;;;;;3.17;2.50;;;;;;;18.89;47.73;99385.50;2072318;28;20489;-63
2021/04/03 00:19:51;;;;;;;3.03;2.30;;;;;;;18.90;47.70;99387.19;2071726;28;20030;-63
2021/04/03 00:20:52;;;;;;;4.32;3.05;;;;;;;18.91;47.77;99390.78;2070182;28;20017;-63
2021/04/03 00:21:52;;;;;;;3.80;3.00;;;;;;;18.91;47.66;99388.03;2072258;28;20121;-63
2021/04/03 00:22:53;;;;;;;3.27;2.50;;;;;;;18.91;47.70;99390.78;2070177;28;20049;-63
2021/04/03 00:23:54;;;;;;;3.60;2.75;;;;;;;18.91;47.70;99388.03;2072210;28;20026;-63
2021/04/03 00:25:16;;;;;;;4.37;3.03;;;;;;;18.88;47.73;99389.25;2071193;28;20053;-63
2021/04/03 00:26:17;;;;;;;4.43;2.47;;;;;;;18.88;47.87;99383.78;2069659;28;20169;-63
2021/04/03 00:27:18;;;;;;;3.03;2.60;;;;;;;18.89;47.72;99379.16;2072452;28;20042;-63
2021/04/03 00:28:19;;;;;;;3.70;2.75;;;;;;;18.89;47.75;99381.88;2070606;28;20065;-63
2021/04/03 00:29:19;;;;;;;6.18;2.72;;;;;;;18.89;47.60;99370.97;2072219;28;20080;-63
2021/04/03 00:30:20;;;;;;;3.33;2.50;;;;;;;18.89;47.79;99369.13;2064133;28;20126;-63
2021/04/03 00:31:21;;;;;;;3.43;2.70;;;;;;;18.90;47.72;99364.50;2066543;28;20026;-62
2021/04/03 00:32:21;;;;;;;3.60;2.30;;;;;;;18.91;47.74;99366.19;2061436;28;20511;-63
2021/04/03 00:33:22;;;;;;;2.97;2.40;;;;;;;18.90;47.70;99364.50;2069254;28;20028;-63
2021/04/03 00:34:22;;;;;;;3.33;2.43;;;;;;;18.90;47.82;99359.03;2072065;28;20026;-63
2021/04/03 00:35:26;;;;;;;3.13;2.70;;;;;;;18.90;47.70;99359.03;2065733;28;20081;-63
2021/04/03 00:36:26;;;;;;;3.20;2.42;;;;;;;18.91;47.64;99366.19;2066309;28;20026;-63
2021/04/03 00:37:27;;;;;;;3.30;2.70;;;;;;;18.91;47.59;99360.75;2072082;28;20497;-63
2021/04/03 00:38:27;;;;;;;3.50;2.23;;;;;;;18.92;47.91;99362.47;2065758;28;20019;-63
2021/04/03 00:39:28;;;;;;;2.83;2.40;;;;;;;18.91;47.82;99363.47;2064821;28;20026;-63
2021/04/03 00:40:44;;;;;;;3.17;2.53;;;;;;;18.89;47.80;99365.50;2063189;28;20379;-63
2021/04/03 00:41:44;;;;;;;3.67;2.90;;;;;;;18.90;47.74;99361.78;2068325;28;20026;-63
2021/04/03 00:42:45;;;;;;;3.30;2.50;;;;;;;18.91;47.71;99367.03;2072016;28;20148;-63
2021/04/03 00:43:46;;;;;;;3.50;2.55;;;;;;;18.90;47.88;99364.50;2069491;28;20095;-63
2021/04/03 00:44:47;;;;;;;2.77;2.53;;;;;;;18.91;47.70;99360.75;2069661;28;20087;-63
2021/04/03 00:45:49;;;;;;;5.47;3.15;;;;;;;18.90;47.66;99369.97;2071398;28;20049;-63
2021/04/03 00:46:49;;;;;;;2.88;2.53;;;;;;;18.90;47.89;99364.50;2070113;28;20029;-63
2021/04/03 00:47:51;;;;;;;3.43;2.57;;;;;;;18.90;47.75;99364.50;2072163;28;20030;-63
2021/04/03 00:48:51;;;;;;;2.85;2.25;;;;;;;18.90;47.75;99370.81;2069755;28;20358;-63
2021/04/03 00:49:52;;;;;;;3.10;2.30;;;;;;;18.89;47.87;99368.25;2071307;28;20040;-63
2021/04/03 00:50:54;;;;;;;2.60;2.40;;;;;;;18.88;47.92;99361.94;2071967;28;20034;-63
2021/04/03 00:51:54;;;;;;;3.28;2.30;;;;;;;18.89;47.89;99368.25;2069363;28;20500;-63
2021/04/03 00:52:55;;;;;;;2.80;2.50;;;;;;;18.89;47.83;99368.25;2072179;28;20453;-63
2021/04/03 00:53:56;;;;;;;3.90;2.80;;;;;;;18.89;47.75;99368.25;2071352;28;20028;-63
2021/04/03 00:54:56;;;;;;;3.60;2.57;;;;;;;18.87;47.78;99371.16;2070930;28;20057;-63
2021/04/03 00:55:57;;;;;;;2.77;2.43;;;;;;;18.88;47.77;99366.53;2064030;28;20117;-63
2021/04/03 00:56:57;;;;;;;3.80;2.60;;;;;;;18.87;47.87;99360.22;2067310;28;20050;-63
2021/04/03 00:57:58;;;;;;;3.83;2.60;;;;;;;18.88;47.77;99372.00;2072120;28;20033;-63
2021/04/03 00:58:59;;;;;;;2.83;2.53;;;;;;;18.88;47.64;99361.94;2069943;28;20029;-63
2021/04/03 01:00:00;;;;;;;3.43;2.80;;;;;;;18.88;47.70;99367.38;2071821;28;20360;-63
2021/04/03 01:01:03;;;;;;;3.45;2.90;;;;;;;18.87;47.54;99364.84;2070436;28;20038;-63
2021/04/03 01:02:05;;;;;;;4.43;2.78;;;;;;;18.89;47.94;99368.25;2069486;28;20678;-63
2021/04/03 01:03:06;;;;;;;2.88;2.55;;;;;;;18.89;47.71;99370.97;2069460;28;20029;-63
2021/04/03 01:04:06;;;;;;;2.88;2.30;;;;;;;18.87;47.86;99367.56;2071141;28;20049;-62
2021/04/03 01:05:14;;;;;;;3.07;2.70;;;;;;;18.85;47.87;99365.00;2070894;28;20041;-63
2021/04/03 01:06:14;;;;;;;2.92;2.55;;;;;;;18.88;47.84;99363.81;2070967;28;20038;-63
2021/04/03 01:07:15;;;;;;;3.33;2.37;;;;;;;18.88;47.90;99367.38;2070639;28;20030;-63
2021/04/03 01:08:15;;;;;;;2.90;2.60;;;;;;;18.87;47.83;99362.97;2069675;28;20033;-63
2021/04/03 01:09:16;;;;;;;3.20;2.57;;;;;;;18.88;47.86;99372.00;2069162;28;20095;-63
2021/04/03 01:10:25;;;;;;;2.63;2.03;;;;;;;18.87;47.88;99364.84;2066509;28;20083;-63
2021/04/03 01:11:28;;;;;;;2.65;2.25;;;;;;;18.87;47.88;99364.84;2065266;28;20014;-63
2021/04/03 01:12:44;;;;;;;4.28;2.72;;;;;;;18.85;47.88;99367.72;2068670;28;20545;-63
2021/04/03 01:14:05;;;;;;;3.38;2.70;;;;;;;18.85;47.75;99368.56;2063840;28;20065;-62
2021/04/03 01:15:23;;;;;;;3.00;2.25;;;;;;;18.84;47.89;99366.03;2068970;28;20116;-62
2021/04/03 01:16:26;;;;;;;3.38;2.40;;;;;;;18.84;47.79;99366.88;2067899;28;20029;-63
2021/04/03 01:17:33;;;;;;;3.05;2.60;;;;;;;18.85;47.76;99374.03;2064538;28;20034;-62
2021/04/03 01:19:05;;;;;;;2.97;2.20;;;;;;;18.83;47.96;99369.75;2071440;28;20032;-63
2021/04/03 01:20:31;;;;;;;3.60;2.80;;;;;;;18.83;47.99;99370.63;2071182;28;20041;-63
2021/04/03 01:22:05;;;;;;;2.80;2.42;;;;;;;18.81;47.89;99361.75;2070642;28;20026;-63
2021/04/03 01:23:33;;;;;;;3.30;2.55;;;;;;;18.82;48.00;99368.06;2069537;28;20026;-63
2021/04/03 01:24:50;;;;;;;3.75;3.10;;;;;;;18.80;47.86;99368.22;2069278;28;20497;-63
2021/04/03 01:26:24;;;;;;;4.03;2.35;;;;;;;18.80;48.03;99368.22;2071640;28;20466;-63
2021/04/03 01:27:25;;;;;;;4.03;2.55;;;;;;;18.81;47.92;99374.53;2063706;28;20097;-63
2021/04/03 01:28:44;;;;;;;3.10;2.53;;;;;;;18.80;48.01;99368.22;2067267;28;20022;-63
2021/04/03 01:29:47;;;;;;;2.97;2.22;;;;;;;18.82;47.90;99374.38;2069700;28;20033;-63
2021/04/03 01:30:49;;;;;;;2.90;2.55;;;;;;;18.83;48.00;99365.16;2071546;28;20049;-63
2021/04/03 01:31:51;;;;;;;4.10;2.38;;;;;;;18.83;47.73;99367.88;2070471;28;20454;-63
2021/04/03 01:33:06;;;;;;;3.05;2.28;;;;;;;18.82;47.88;99368.91;2070540;28;20034;-63
2021/04/03 01:34:11;;;;;;;2.85;1.95;;;;;;;18.83;47.98;99365.16;2071504;28;20109;-63
2021/04/03 01:35:21;;;;;;;3.53;2.75;;;;;;;18.83;47.80;99372.50;2068644;28;20026;-63
2021/04/03 01:36:25;;;;;;;3.15;2.60;;;;;;;18.84;47.83;99369.63;2069672;28;20030;-63
2021/04/03 01:37:27;;;;;;;3.67;2.75;;;;;;;18.83;47.73;99365.16;2070726;28;20038;-63
2021/04/03 01:38:44;;;;;;;2.80;2.00;;;;;;;18.83;47.81;99365.16;2065797;28;20030;-63
2021/04/03 01:39:47;;;;;;;2.42;2.22;;;;;;;18.83;47.80;99358.84;2071163;28;20310;-63
2021/04/03 01:40:50;;;;;;;2.80;2.47;;;;;;;18.83;47.91;99365.16;2071298;28;20400;-63
2021/04/03 01:41:54;;;;;;;3.42;2.60;;;;;;;18.82;47.70;99362.59;2069275;28;20030;-63
2021/04/03 01:43:02;;;;;;;4.05;2.70;;;;;;;18.83;47.91;99365.16;2070795;28;20452;-63
2021/04/03 01:44:09;;;;;;;3.50;2.53;;;;;;;18.84;47.89;99366.03;2069317;28;20022;-63
2021/04/03 01:45:10;;;;;;;2.70;2.15;;;;;;;18.83;47.68;99362.44;2071013;28;20443;-63
2021/04/03 01:46:12;;;;;;;3.43;2.50;;;;;;;18.84;47.71;99366.88;2071000;28;20176;-63
2021/04/03 01:47:13;;;;;;;2.53;2.22;;;;;;;18.85;47.92;99368.56;2071309;28;20121;-63
2021/04/03 01:48:16;;;;;;;3.10;2.70;;;;;;;18.83;48.10;99365.16;2069583;28;20030;-63
2021/04/03 01:49:20;;;;;;;2.65;2.30;;;;;;;18.85;47.72;99370.47;2068287;28;20026;-64
2021/04/03 01:50:22;;;;;;;2.92;2.28;;;;;;;18.84;47.85;99361.41;2063358;28;20512;-63
2021/04/03 01:51:24;;;;;;;3.35;2.47;;;;;;;18.84;47.73;99366.88;2069288;28;20463;-62
2021/04/03 01:52:27;;;;;;;2.75;2.45;;;;;;;18.84;47.77;99366.03;2070381;28;20033;-62
2021/04/03 01:53:29;;;;;;;3.00;2.33;;;;;;;18.84;47.73;99366.88;2070942;28;20512;-63
2021/04/03 01:54:31;;;;;;;3.60;2.38;;;;;;;18.84;47.82;99372.34;2065772;28;20030;-63
2021/04/03 01:55:33;;;;;;;2.70;2.45;;;;;;;18.83;47.85;99359.69;2070649;28;20018;-63
2021/04/03 01:56:33;;;;;;;5.20;2.60;;;;;;;18.84;47.83;99358.69;2071206;28;20030;-63
2021/04/03 01:57:35;;;;;;;4.00;2.40;;;;;;;18.84;47.76;99361.41;2067411;28;20037;-63
2021/04/03 01:58:36;;;;;;;;;;;;;;;18.79;47.87;99355.59;2064215;28;20045;-63
2021/04/03 01:59:38;;;;;;;4.10;3.05;;;;;;;18.80;47.87;99354.56;2070746;28;19952;-63
2021/04/03 02:00:41;;;;;;;3.10;2.17;;;;;;;18.81;47.76;99353.56;2069911;28;20053;-63
2021/04/03 02:01:44;;;;;;;3.92;2.38;;;;;;;18.81;47.94;99350.84;2070486;28;20041;-62
2021/04/03 02:02:45;;;;;;;3.70;2.60;;;;;;;18.81;48.01;99347.22;2070310;28;20034;-63
2021/04/03 02:03:47;;;;;;;3.35;2.78;;;;;;;18.82;47.94;99347.06;2068623;28;20030;-63
2021/04/03 02:04:47;;;;;;;;;;;;;;;18.78;48.04;99351.16;2071366;28;20034;-63
2021/04/03 02:05:48;;;;;;;3.03;2.45;;;;;;;18.80;47.83;99349.13;2071316;28;19944;-63
2021/04/03 02:06:50;;;;;;;2.88;2.38;;;;;;;18.81;47.92;99345.38;2069618;28;20026;-63
2021/04/03 02:07:52;;;;;;;3.83;2.65;;;;;;;18.81;47.83;99349.97;2071085;28;20037;-63
2021/04/03 02:08:53;;;;;;;;;;;;;;;18.77;47.95;99349.44;2071041;28;20037;-62
2021/04/03 02:09:55;;;;;;;3.05;2.38;;;;;;;18.78;48.01;99347.56;2071146;28;19913;-63
2021/04/03 02:11:01;;;;;;;3.03;2.55;;;;;;;18.79;47.83;99347.41;2070813;28;20040;-63
2021/04/03 02:12:03;;;;;;;2.88;2.58;;;;;;;18.80;47.77;99348.25;2069104;28;20026;-63
2021/04/03 02:13:05;;;;;;;2.83;2.35;;;;;;;18.80;47.83;99349.13;2070472;28;20116;-63
2021/04/03 02:14:06;;;;;;;2.53;2.08;;;;;;;18.81;47.97;99345.38;2069694;28;20041;-63
2021/04/03 02:15:09;;;;;;;2.40;2.13;;;;;;;18.81;47.76;99342.66;2071426;28;20038;-62
2021/04/03 02:16:11;;;;;;;2.88;2.10;;;;;;;18.81;48.03;99345.38;2070753;28;20078;-63
2021/04/03 02:17:14;;;;;;;3.42;2.58;;;;;;;18.82;47.88;99347.06;2064485;28;20041;-63
2021/04/03 02:18:18;;;;;;;3.78;2.50;;;;;;;18.82;47.79;99347.06;2070206;28;20032;-63
2021/04/03 02:19:19;;;;;;;2.95;2.40;;;;;;;18.82;47.89;99352.53;2070558;28;20022;-63
2021/04/03 02:20:20;;;;;;;;;;;;;;;18.78;47.85;99344.84;2071431;28;20543;-63
2021/04/03 02:21:21;;;;;;;3.10;2.58;;;;;;;18.79;48.00;99349.25;2077333;28;20672;-63
2021/04/03 02:22:22;;;;;;;3.50;2.30;;;;;;;18.80;47.78;99354.56;2071099;28;20127;-63
2021/04/03 02:23:23;;;;;;;3.03;2.72;;;;;;;18.81;47.76;99349.97;2070883;28;20040;-63
2021/04/03 02:24:23;;;;;;;3.63;2.73;;;;;;;18.81;47.79;99350.84;2071289;28;20038;-63
2021/04/03 02:25:23;;;;;;;3.53;2.83;;;;;;;18.82;47.76;99358.00;2070078;28;20362;-63
2021/04/03 02:26:24;;;;;;;3.23;2.70;;;;;;;18.81;47.86;99350.84;2070945;28;20079;-63
2021/04/03 02:27:26;;;;;;;3.93;2.80;;;;;;;18.83;47.90;99353.38;2070002;28;20030;-63
2021/04/03 02:28:27;;;;;;;2.47;2.20;;;;;;;18.82;47.83;99352.53;2068576;28;20109;-63
2021/04/03 02:29:27;;;;;;;4.47;2.60;;;;;;;18.82;47.82;99352.53;2071206;28;20030;-63
2021/04/03 02:30:28;;;;;;;2.80;2.37;;;;;;;18.81;47.94;99356.31;2068198;28;20359;-63
2021/04/03 02:31:29;;;;;;;3.03;2.30;;;;;;;18.82;47.88;99352.53;2067284;28;20017;-62
2021/04/03 02:32:29;;;;;;;2.88;2.38;;;;;;;18.82;47.79;99346.22;2065273;28;20785;-63
2021/04/03 02:33:30;;;;;;;2.73;2.40;;;;;;;18.82;47.71;99349.81;2068302;28;20385;-63
2021/04/03 02:34:31;;;;;;;2.77;2.47;;;;;;;18.83;47.73;99356.13;2071138;28;20461;-63
2021/04/03 02:35:31;;;;;;;3.20;2.37;;;;;;;18.82;47.73;99352.53;2069897;28;20057;-63
2021/04/03 02:36:32;;;;;;;3.03;2.63;;;;;;;18.83;47.62;99354.22;2069816;28;20034;-63
2021/04/03 02:37:32;;;;;;;2.77;2.33;;;;;;;18.82;47.77;99341.63;2064501;28;20060;-63
2021/04/03 02:38:33;;;;;;;2.63;2.07;;;;;;;18.83;47.74;99348.78;2067583;28;20060;-63
2021/04/03 02:39:33;;;;;;;3.23;2.63;;;;;;;18.82;47.91;99352.53;2065595;28;20025;-63
2021/04/03 02:40:34;;;;;;;2.67;2.47;;;;;;;18.82;47.88;99347.06;2070842;28;20078;-63
2021/04/03 02:41:37;;;;;;;2.63;2.30;;;;;;;18.82;47.73;99347.06;2071137;28;20526;-63
2021/04/03 02:43:01;;;;;;;2.90;2.47;;;;;;;18.80;47.77;99340.91;2071062;28;20064;-63
2021/04/03 02:44:11;;;;;;;2.90;2.40;;;;;;;18.80;47.92;99346.38;2069140;28;20137;-63
2021/04/03 02:45:17;;;;;;;3.33;2.67;;;;;;;18.80;47.85;99342.81;2071174;28;20095;-62
2021/04/03 02:46:32;;;;;;;2.88;2.58;;;;;;;18.80;47.84;99349.13;2062510;28;20062;-62
2021/04/03 02:47:40;;;;;;;2.78;2.10;;;;;;;18.80;47.79;99349.13;2070675;28;20049;-63
2021/04/03 02:48:47;;;;;;;2.58;2.30;;;;;;;18.80;47.95;99343.66;2069738;28;20108;-63
2021/04/03 02:49:52;;;;;;;4.13;2.60;;;;;;;18.79;47.93;99341.97;2064283;28;20026;-63
2021/04/03 02:50:55;;;;;;;3.30;2.22;;;;;;;18.80;47.91;99343.66;2070216;28;20037;-63
2021/04/03 02:51:57;;;;;;;2.63;2.08;;;;;;;18.80;47.72;99346.38;2068818;28;20025;-63
2021/04/03 02:52:59;;;;;;;2.92;1.95;;;;;;;18.81;47.92;99350.84;2063470;28;20066;-63
2021/04/03 02:54:02;;;;;;;3.00;2.40;;;;;;;18.81;47.83;99353.56;2069386;28;20739;-63
2021/04/03 02:55:04;;;;;;;3.22;2.50;;;;;;;18.82;47.79;99358.00;2070116;28;20033;-63
2021/04/03 02:56:06;;;;;;;3.88;2.80;;;;;;;18.81;48.01;99356.31;2070287;28;20033;-63
2021/04/03 02:57:10;;;;;;;2.95;2.58;;;;;;;18.81;47.93;99356.31;2070352;28;20068;-63
2021/04/03 02:58:14;;;;;;;2.60;2.40;;;;;;;18.82;47.89;99362.59;2071125;28;20030;-63
2021/04/03 02:59:37;;;;;;;2.88;2.30;;;;;;;18.79;48.01;99358.34;2068593;28;20105;-63
2021/04/03 03:00:40;;;;;;;2.90;2.55;;;;;;;18.81;47.84;99355.41;2070321;28;20037;-63
2021/04/03 03:01:43;;;;;;;3.13;2.30;;;;;;;18.80;47.93;99360.03;2071137;28;20505;-62
2021/04/03 03:02:44;;;;;;;4.68;3.00;;;;;;;18.80;47.72;99354.56;2069019;28;20046;-63
2021/04/03 03:03:46;;;;;;;2.83;2.40;;;;;;;18.80;47.91;99354.56;2071011;28;20374;-63
2021/04/03 03:04:48;;;;;;;3.10;2.50;;;;;;;18.80;47.92;99360.03;2068015;28;20087;-63
2021/04/03 03:05:53;;;;;;;2.80;2.25;;;;;;;18.81;47.95;99360.88;2069241;28;20021;-63
2021/04/03 03:06:55;;;;;;;2.72;2.17;;;;;;;18.80;47.86;99365.50;2070271;28;20460;-63
2021/04/03 03:07:56;;;;;;;;;;;;;;;18.75;47.90;99356.91;2070343;28;20409;-63
2021/04/03 03:08:57;;;;;;;2.78;2.30;;;;;;;18.77;47.85;99364.97;2071217;28;19913;-63
2021/04/03 03:09:58;;;;;;;3.58;2.70;;;;;;;18.78;47.96;99361.22;2069230;28;20021;-63
2021/04/03 03:11:01;;;;;;;3.45;2.63;;;;;;;18.78;47.89;99359.34;2071089;28;20128;-63
2021/04/03 03:12:02;;;;;;;2.60;2.38;;;;;;;18.79;47.98;99358.34;2067344;28;20684;-62
2021/04/03 03:13:05;;;;;;;3.47;2.38;;;;;;;18.78;48.04;99356.59;2071143;28;20037;-63
2021/04/03 03:14:06;;;;;;;4.53;2.80;;;;;;;18.79;47.85;99355.59;2070118;28;20140;-63
2021/04/03 03:15:08;;;;;;;2.87;2.57;;;;;;;18.79;47.86;99352.88;2071143;28;20044;-63
2021/04/03 03:16:10;;;;;;;2.60;2.38;;;;;;;18.79;47.76;99352.88;2069735;28;20068;-63
2021/04/03 03:17:12;;;;;;;3.05;2.47;;;;;;;18.79;47.83;99347.41;2070249;28;20042;-63
2021/04/03 03:18:14;;;;;;;7.57;3.15;;;;;;;18.79;47.90;99347.41;2070885;28;20699;-63
2021/04/03 03:19:15;;;;;;;;;;;;;;;18.74;47.98;99344.28;2067057;28;20068;-63
2021/04/03 03:20:16;;;;;;;3.58;2.70;;;;;;;18.77;47.85;99348.59;2070948;28;19914;-63
2021/04/03 03:21:17;;;;;;;3.07;2.40;;;;;;;18.77;48.01;99349.44;2070516;28;20040;-63
2021/04/03 03:22:18;;;;;;;4.50;2.58;;;;;;;18.78;48.00;99353.03;2068973;28;20038;-63
2021/04/03 03:23:19;;;;;;;2.72;2.03;;;;;;;18.78;48.00;99345.69;2070953;28;20370;-63
2021/04/03 03:24:20;;;;;;;3.33;2.30;;;;;;;18.78;48.10;99351.16;2067845;28;20028;-63
2021/04/03 03:25:20;;;;;;;3.70;2.40;;;;;;;18.79;47.87;99349.25;2070841;28;20686;-63
2021/04/03 03:26:21;;;;;;;3.13;2.60;;;;;;;18.79;47.84;99352.00;2069336;28;20659;-63
2021/04/03 03:27:23;;;;;;;3.97;2.47;;;;;;;18.79;47.77;99352.88;2069946;28;20037;-63
2021/04/03 03:28:25;;;;;;;2.45;2.10;;;;;;;18.80;47.86;99354.56;2070846;28;20148;-63
2021/04/03 03:29:26;;;;;;;;;;;;;;;18.74;47.99;99341.56;2068263;28;20571;-63
2021/04/03 03:30:27;;;;;;;2.42;2.13;;;;;;;18.75;48.15;99346.00;2070973;28;19913;-63
2021/04/03 03:31:28;;;;;;;2.80;2.15;;;;;;;18.76;47.94;99342.25;2068052;28;20385;-63
2021/04/03 03:32:29;;;;;;;2.77;2.43;;;;;;;18.76;47.96;99335.94;2070381;28;20026;-63
2021/04/03 03:33:30;;;;;;;4.43;2.33;;;;;;;18.78;47.98;99344.84;2069966;28;20215;-63
2021/04/03 03:34:30;;;;;;;3.53;2.80;;;;;;;18.77;47.86;99343.13;2066520;28;20022;-63
2021/04/03 03:35:31;;;;;;;2.67;2.27;;;;;;;18.78;48.03;99345.69;2071121;28;20156;-63
2021/04/03 03:36:35;;;;;;;3.00;2.27;;;;;;;18.77;47.90;99338.53;2068087;28;20500;-64
2021/04/03 03:37:35;;;;;;;2.88;2.40;;;;;;;18.78;47.56;99337.50;2070147;28;20707;-63
2021/04/03 03:38:39;;;;;;;2.57;2.17;;;;;;;18.78;47.96;99337.50;2069869;28;20733;-63
2021/04/03 03:39:41;;;;;;;2.50;2.10;;;;;;;18.78;47.86;99337.50;2067907;28;20402;-63
2021/04/03 03:40:42;;;;;;;2.17;1.98;;;;;;;18.79;47.91;99333.75;2070798;28;20036;-63
2021/04/03 03:41:43;;;;;;;2.97;2.25;;;;;;;18.78;48.09;99326.56;2068883;28;20112;-63
2021/04/03 03:42:47;;;;;;;2.63;2.23;;;;;;;18.77;47.87;99333.06;2068231;28;20038;-63
2021/04/03 03:43:48;;;;;;;2.65;2.30;;;;;;;18.79;47.94;99335.63;2069886;28;20263;-63
2021/04/03 03:44:50;;;;;;;3.23;2.27;;;;;;;18.78;47.92;99337.50;2069481;28;20022;-63
2021/04/03 03:45:51;;;;;;;2.83;2.30;;;;;;;18.78;47.94;99345.69;2070695;28;20064;-63
2021/04/03 03:46:51;;;;;;;2.80;2.50;;;;;;;18.79;47.79;99341.06;2069783;28;20029;-63
2021/04/03 03:47:54;;;;;;;3.40;2.53;;;;;;;18.78;47.92;99350.31;2068348;28;20022;-63
2021/04/03 03:48:55;;;;;;;2.50;2.30;;;;;;;18.77;48.05;99344.00;2062979;28;20433;-63
2021/04/03 03:49:55;;;;;;;2.97;2.40;;;;;;;18.79;47.85;99352.00;2069872;28;20083;-63
2021/04/03 03:50:56;;;;;;;2.50;2.23;;;;;;;18.79;47.93;99354.72;2072397;28;20025;-63
2021/04/03 03:51:56;;;;;;;2.83;2.20;;;;;;;18.78;47.97;99351.16;2070727;28;20617;-62
2021/04/03 03:52:56;;;;;;;2.97;2.17;;;;;;;18.78;48.10;99353.03;2069720;28;20165;-63
2021/04/03 03:53:57;;;;;;;2.30;2.00;;;;;;;18.79;47.79;99352.88;2072078;28;20070;-63
2021/04/03 03:54:57;;;;;;;2.80;2.30;;;;;;;18.78;47.84;99348.41;2069974;28;20017;-63
2021/04/03 03:55:59;;;;;;;1.93;1.77;;;;;;;18.78;47.75;99351.16;2072484;28;20096;-62
2021/04/03 03:57:01;;;;;;;2.55;2.20;;;;;;;18.77;47.92;99349.44;2071901;28;20052;-63
2021/04/03 03:58:02;;;;;;;3.17;2.35;;;;;;;18.78;48.03;99347.56;2069233;28;20038;-63
2021/04/03 03:59:03;;;;;;;2.45;2.05;;;;;;;18.78;48.06;99348.41;2072195;28;20067;-63
2021/04/03 04:00:08;;;;;;;3.40;2.38;;;;;;;18.78;47.91;99356.59;2071406;28;20045;-63
2021/04/03 04:01:08;;;;;;;2.33;2.13;;;;;;;18.78;47.93;99351.16;2072071;28;20116;-63
2021/04/03 04:02:09;;;;;;;2.60;2.20;;;;;;;18.77;48.02;99354.91;2069614;28;20030;-63
2021/04/03 04:03:09;;;;;;;4.13;2.73;;;;;;;18.77;48.06;99352.19;2069973;28;20031;-63
2021/04/03 04:04:10;;;;;;;3.17;2.20;;;;;;;18.77;47.89;99345.88;2072047;28;20108;-63
2021/04/03 04:05:11;;;;;;;3.87;2.60;;;;;;;18.78;47.84;99351.16;2068295;28;20492;-63
2021/04/03 04:06:12;;;;;;;2.33;2.13;;;;;;;18.77;47.98;99349.44;2072244;28;20034;-63
2021/04/03 04:07:12;;;;;;;2.93;2.33;;;;;;;18.78;48.01;99353.88;2071136;28;20025;-63
2021/04/03 04:08:13;;;;;;;2.90;2.07;;;;;;;18.76;47.90;99358.63;2071727;28;20033;-63
2021/04/03 04:09:14;;;;;;;4.43;3.35;;;;;;;18.77;47.82;99354.91;2072239;28;20060;-63
2021/04/03 04:10:15;;;;;;;2.83;2.20;;;;;;;18.77;47.82;99363.09;2068067;28;20064;-62
2021/04/03 04:11:15;;;;;;;2.60;2.13;;;;;;;18.77;47.94;99365.84;2072425;28;20029;-63
2021/04/03 04:12:16;;;;;;;2.70;2.20;;;;;;;18.75;48.04;99362.38;2068974;28;20032;-63
2021/04/03 04:13:16;;;;;;;3.13;2.40;;;;;;;18.76;47.86;99369.56;2072563;28;20188;-63
2021/04/03 04:14:17;;;;;;;2.57;2.00;;;;;;;18.76;47.89;99371.44;2069808;28;20026;-63
2021/04/03 04:15:17;;;;;;;2.30;2.00;;;;;;;18.77;48.04;99365.84;2071958;28;20021;-63
2021/04/03 04:16:17;;;;;;;2.80;2.20;;;;;;;18.77;47.97;99374.03;2071860;28;20030;-63
2021/04/03 04:17:18;;;;;;;5.33;2.30;;;;;;;18.76;47.96;99369.56;2071817;28;20743;-62
2021/04/03 04:18:19;;;;;;;2.47;1.90;;;;;;;18.77;48.06;99365.84;2069343;28;20055;-62
2021/04/03 04:19:19;;;;;;;2.30;1.97;;;;;;;18.76;47.85;99372.28;2066230;28;20065;-63
2021/04/03 04:20:20;;;;;;;2.93;2.60;;;;;;;18.77;48.04;99375.91;2063262;28;20038;-63
2021/04/03 04:21:21;;;;;;;2.85;2.15;;;;;;;18.76;47.83;99372.28;2063244;28;20031;-63
2021/04/03 04:22:21;;;;;;;3.03;2.30;;;;;;;18.77;47.98;99376.75;2068885;28;20165;-63
2021/04/03 04:23:22;;;;;;;2.87;2.10;;;;;;;18.76;48.05;99380.47;2069450;28;20619;-63
2021/04/03 04:24:22;;;;;;;2.97;2.20;;;;;;;18.76;47.97;99380.47;2067018;28;20152;-63
2021/04/03 04:25:23;;;;;;;2.67;2.17;;;;;;;18.76;47.89;99379.63;2066896;28;20085;-63
2021/04/03 04:26:23;;;;;;;2.30;2.10;;;;;;;18.76;47.80;99380.47;2070303;28;20037;-63
2021/04/03 04:27:24;;;;;;;2.97;2.10;;;;;;;18.76;48.04;99383.22;2063369;28;20122;-63
2021/04/03 04:28:30;;;;;;;3.40;2.50;;;;;;;18.74;48.14;99390.72;2071158;28;20396;-63
2021/04/03 04:29:31;;;;;;;2.97;2.13;;;;;;;18.76;47.98;99385.94;2071766;28;20064;-63
2021/04/03 04:30:31;;;;;;;2.93;2.20;;;;;;;18.75;48.11;99378.75;2071841;28;20054;-63
2021/04/03 04:31:32;;;;;;;2.50;2.17;;;;;;;18.75;47.95;99381.47;2071614;28;20460;-63
2021/04/03 04:32:32;;;;;;;2.97;1.90;;;;;;;18.75;47.97;99384.22;2068579;28;20066;-63
2021/04/03 04:33:33;;;;;;;2.57;2.30;;;;;;;18.76;48.08;99380.47;2069505;28;20120;-63
2021/04/03 04:34:33;;;;;;;2.53;2.33;;;;;;;18.76;47.99;99391.41;2065692;28;20021;-63
2021/04/03 04:35:33;;;;;;;5.17;2.80;;;;;;;18.75;47.96;99377.91;2070212;28;20160;-63
2021/04/03 04:36:34;;;;;;;2.80;2.20;;;;;;;18.75;48.11;99378.75;2070911;28;20105;-63
2021/04/03 04:37:35;;;;;;;2.63;2.40;;;;;;;18.75;48.10;99377.91;2071620;28;20053;-63
2021/04/03 04:38:35;;;;;;;2.33;2.10;;;;;;;18.75;47.99;99384.22;2070382;28;20029;-63
2021/04/03 04:39:36;;;;;;;3.50;2.33;;;;;;;18.76;48.11;99388.69;2069520;28;20033;-63
2021/04/03 04:40:37;;;;;;;2.80;2.00;;;;;;;18.75;47.94;99384.22;2071795;28;20032;-63
2021/04/03 04:41:37;;;;;;;2.90;2.30;;;;;;;18.75;48.03;99389.69;2070667;28;20062;-62
2021/04/03 04:42:39;;;;;;;3.20;2.43;;;;;;;18.76;48.00;99396.03;2071756;28;20048;-62
2021/04/03 04:43:40;;;;;;;3.58;2.25;;;;;;;18.74;48.04;99401.63;2070178;28;20048;-63
2021/04/03 04:44:40;;;;;;;2.37;2.10;;;;;;;18.75;48.13;99400.59;2071130;28;20038;-62
2021/04/03 04:45:41;;;;;;;4.70;2.37;;;;;;;18.75;48.05;99400.59;2071443;28;20026;-62
2021/04/03 04:46:41;;;;;;;2.27;2.07;;;;;;;18.75;48.11;99406.06;2070630;28;20060;-63
2021/04/03 04:47:42;;;;;;;3.13;2.10;;;;;;;18.74;48.04;99398.03;2071787;28;20090;-62
2021/04/03 04:48:42;;;;;;;3.20;2.17;;;;;;;18.75;48.03;99400.59;2070203;28;20034;-62
2021/04/03 04:49:43;;;;;;;2.63;2.17;;;;;;;18.74;48.04;99404.34;2071178;28;20111;-62
2021/04/03 04:50:43;;;;;;;3.33;2.50;;;;;;;18.73;47.66;99397.16;2071977;28;20766;-62
2021/04/03 04:51:44;;;;;;;3.50;2.30;;;;;;;18.75;48.06;99405.22;2071308;28;20049;-62
2021/04/03 04:52:44;;;;;;;3.43;2.53;;;;;;;18.75;48.11;99413.41;2071233;28;20685;-62
2021/04/03 04:53:45;;;;;;;2.50;1.93;;;;;;;18.74;48.15;99406.22;2071432;28;20073;-62
2021/04/03 04:54:45;;;;;;;2.70;2.30;;;;;;;18.74;48.16;99411.66;2063840;28;20030;-63
2021/04/03 04:55:46;;;;;;;2.40;1.90;;;;;;;18.74;48.15;99412.56;2070232;28;20021;-62